createdAt,value
2018-02-07T00:02:18.688Z,88.30
2018-02-07T00:04:52.504Z,88.30
2018-02-07T00:07:28.236Z,89.30
2018-02-07T00:10:02.471Z,89.30
2018-02-07T00:12:36.573Z,88.80
2018-02-07T00:15:10.375Z,88.10
2018-02-07T00:17:45.626Z,87.60
2018-02-07T00:20:19.628Z,87.80
2018-02-07T00:22:55.351Z,88.60
2018-02-07T00:25:30.300Z,88.70
2018-02-07T00:28:04.915Z,88.60
2018-02-07T00:30:39.675Z,88.60
2018-02-07T00:33:14.166Z,88.90
2018-02-07T00:35:49.003Z,89.50
2018-02-07T00:38:22.885Z,89.60
2018-02-07T00:40:57.648Z,88.20
2018-02-07T00:56:40.656Z,88.60
2018-02-07T00:59:16.522Z,88.30
2018-02-07T01:01:50.215Z,88.30
2018-02-07T01:04:25.371Z,89.10
2018-02-07T01:06:59.638Z,89.20
2018-02-07T01:09:33.931Z,89.30
2018-02-07T01:12:07.969Z,89.80
2018-02-07T01:14:41.884Z,90.20
2018-02-07T01:17:16.590Z,90.00
2018-02-07T01:19:50.683Z,90.00
2018-02-07T01:22:25.559Z,90.10
2018-02-07T01:25:00.791Z,90.20
2018-02-07T01:27:35.321Z,90.00
2018-02-07T01:30:10.029Z,90.10
2018-02-07T01:32:44.056Z,90.10
2018-02-07T01:35:18.152Z,90.80
2018-02-07T01:37:55.959Z,90.00
2018-02-07T01:40:30.391Z,90.10
2018-02-07T01:43:04.904Z,90.10
2018-02-07T01:45:39.904Z,90.10
2018-02-07T01:48:14.569Z,90.40
2018-02-07T01:50:49.075Z,90.90
2018-02-07T01:53:24.659Z,90.90
2018-02-07T01:55:59.849Z,90.90
2018-02-07T01:58:34.558Z,90.90
2018-02-07T02:01:09.100Z,90.60
2018-02-07T02:03:43.265Z,90.60
2018-02-07T02:06:17.562Z,90.60
2018-02-07T02:08:52.151Z,90.90
2018-02-07T02:11:27.197Z,91.50
2018-02-07T02:14:00.850Z,91.60
2018-02-07T02:16:36.111Z,91.60
2018-02-07T02:19:09.722Z,91.20
2018-02-07T02:21:45.167Z,90.50
2018-02-07T02:24:19.851Z,90.60
2018-02-07T02:26:54.549Z,90.30
2018-02-07T02:29:29.143Z,90.60
2018-02-07T02:32:03.008Z,90.60
2018-02-07T02:34:37.373Z,90.50
2018-02-07T02:37:11.071Z,90.40
2018-02-07T02:39:45.380Z,90.60
2018-02-07T02:42:19.989Z,90.80
2018-02-07T02:44:53.932Z,90.90
2018-02-07T02:47:28.627Z,91.00
2018-02-07T02:50:02.263Z,91.00
2018-02-07T02:52:37.290Z,91.50
2018-02-07T02:55:11.313Z,91.50
2018-02-07T02:57:45.296Z,92.00
2018-02-07T03:00:20.040Z,91.90
2018-02-07T03:02:54.851Z,91.30
2018-02-07T03:05:29.267Z,91.00
2018-02-07T03:08:03.034Z,91.00
2018-02-07T03:10:37.634Z,91.00
2018-02-07T03:13:12.022Z,91.30
2018-02-07T03:15:46.962Z,91.20
2018-02-07T03:18:20.829Z,91.20
2018-02-07T03:20:55.929Z,91.60
2018-02-07T03:23:30.516Z,91.90
2018-02-07T03:26:05.079Z,91.90
2018-02-07T03:28:39.141Z,91.20
2018-02-07T03:31:13.867Z,91.40
2018-02-07T03:33:47.791Z,91.40
2018-02-07T03:36:22.397Z,92.50
2018-02-07T03:38:55.996Z,92.50
2018-02-07T03:41:30.438Z,92.10
2018-02-07T03:44:04.120Z,92.10
2018-02-07T03:46:37.857Z,91.50
2018-02-07T03:49:11.622Z,91.50
2018-02-07T03:51:46.331Z,91.30
2018-02-07T03:54:19.947Z,91.30
2018-02-07T03:56:54.068Z,91.50
2018-02-07T03:59:28.084Z,91.80
2018-02-07T04:02:02.801Z,92.00
2018-02-07T04:04:37.502Z,92.10
2018-02-07T04:07:11.677Z,92.10
2018-02-07T04:09:45.671Z,92.40
2018-02-07T04:12:19.250Z,92.40
2018-02-07T04:14:54.201Z,92.40
2018-02-07T04:17:28.248Z,92.40
2018-02-07T04:20:02.076Z,92.00
2018-02-07T04:22:36.563Z,91.30
2018-02-07T04:25:11.087Z,91.50
2018-02-07T04:27:45.764Z,91.50
2018-02-07T04:30:19.681Z,91.50
2018-02-07T04:32:54.408Z,91.80
2018-02-07T04:35:29.010Z,91.80
2018-02-07T04:38:03.023Z,91.80
2018-02-07T04:40:37.871Z,92.10
2018-02-07T04:43:12.179Z,92.10
2018-02-07T04:45:46.825Z,92.40
2018-02-07T04:48:23.046Z,93.00
2018-02-07T04:50:56.787Z,92.90
2018-02-07T04:53:31.821Z,92.10
2018-02-07T04:56:05.780Z,92.10
2018-02-07T04:58:39.523Z,92.00
2018-02-07T05:01:14.438Z,92.00
2018-02-07T05:03:48.493Z,92.00
2018-02-07T05:06:22.640Z,92.00
2018-02-07T05:08:58.121Z,91.90
2018-02-07T05:11:33.926Z,92.30
2018-02-07T05:14:08.484Z,92.30
2018-02-07T05:16:43.053Z,92.00
2018-02-07T05:19:18.445Z,92.00
2018-02-07T05:21:54.164Z,91.70
2018-02-07T05:24:28.016Z,91.70
2018-02-07T05:27:02.016Z,91.60
2018-02-07T05:29:35.946Z,91.90
2018-02-07T05:32:09.829Z,91.60
2018-02-07T05:34:43.857Z,91.60
2018-02-07T05:37:18.365Z,91.50
2018-02-07T05:39:52.075Z,91.70
2018-02-07T05:42:26.607Z,91.50
2018-02-07T05:45:01.148Z,91.80
2018-02-07T05:47:36.294Z,91.70
2018-02-07T05:50:10.809Z,92.00
2018-02-07T05:52:44.839Z,92.10
2018-02-07T05:55:18.974Z,91.80
2018-02-07T05:57:55.124Z,91.60
2018-02-07T06:00:28.895Z,91.60
2018-02-07T06:03:02.584Z,91.50
2018-02-07T06:05:36.194Z,91.80
2018-02-07T06:08:09.891Z,92.00
2018-02-07T06:10:44.640Z,92.20
2018-02-07T06:13:18.439Z,92.20
2018-02-07T06:15:52.246Z,92.20
2018-02-07T06:18:25.735Z,92.40
2018-02-07T06:21:00.083Z,92.80
2018-02-07T06:23:33.925Z,92.90
2018-02-07T06:26:07.830Z,92.90
2018-02-07T06:28:42.007Z,93.00
2018-02-07T06:31:15.657Z,92.90
2018-02-07T06:33:49.472Z,92.80
2018-02-07T06:36:23.512Z,93.20
2018-02-07T06:38:57.266Z,92.80
2018-02-07T06:41:31.696Z,92.50
2018-02-07T06:44:06.027Z,92.60
2018-02-07T06:46:39.542Z,92.40
2018-02-07T06:49:14.663Z,92.30
2018-02-07T06:51:49.431Z,92.30
2018-02-07T06:54:23.189Z,92.60
2018-02-07T06:56:57.734Z,92.40
2018-02-07T06:59:31.318Z,92.40
2018-02-07T07:02:04.951Z,91.90
2018-02-07T07:04:38.504Z,91.90
2018-02-07T07:07:12.135Z,91.90
2018-02-07T07:09:46.934Z,92.00
2018-02-07T07:12:21.739Z,92.10
2018-02-07T07:14:55.490Z,92.10
2018-02-07T07:17:29.211Z,92.00
2018-02-07T07:20:02.899Z,92.00
2018-02-07T07:22:36.682Z,92.20
2018-02-07T07:25:11.305Z,92.40
2018-02-07T07:27:44.924Z,92.40
2018-02-07T07:30:18.663Z,92.10
2018-02-07T07:32:52.525Z,92.00
2018-02-07T07:35:26.530Z,92.20
2018-02-07T07:38:00.245Z,92.10
2018-02-07T07:40:34.218Z,92.20
2018-02-07T07:43:07.974Z,92.50
2018-02-07T07:45:41.516Z,92.10
2018-02-07T07:48:16.699Z,91.80
2018-02-07T07:50:50.988Z,91.70
2018-02-07T07:53:25.326Z,91.70
2018-02-07T07:56:00.343Z,92.00
2018-02-07T07:58:33.962Z,91.70
2018-02-07T08:01:09.103Z,91.40
2018-02-07T08:03:43.153Z,91.00
2018-02-07T08:06:16.873Z,90.80
2018-02-07T08:08:51.405Z,90.40
2018-02-07T08:11:25.012Z,90.40
2018-02-07T08:13:58.605Z,90.70
2018-02-07T08:16:32.134Z,90.40
2018-02-07T08:19:08.340Z,90.60
2018-02-07T08:21:42.823Z,90.30
2018-02-07T08:24:16.623Z,90.30
2018-02-07T08:26:51.175Z,88.30
2018-02-07T08:29:24.947Z,88.30
2018-02-07T08:31:59.578Z,88.80
2018-02-07T08:34:33.150Z,88.80
2018-02-07T08:37:07.558Z,88.10
2018-02-07T08:39:41.330Z,87.80
2018-02-07T08:42:15.691Z,88.20
2018-02-07T08:44:50.224Z,85.50
2018-02-07T08:47:24.179Z,85.40
2018-02-07T08:49:59.519Z,85.30
2018-02-07T08:52:33.358Z,85.20
2018-02-07T08:55:06.970Z,86.60
2018-02-07T08:57:41.372Z,82.20
2018-02-07T09:00:15.020Z,82.20
2018-02-07T09:02:49.450Z,80.90
2018-02-07T09:05:23.868Z,78.90
2018-02-07T09:07:57.659Z,78.70
2018-02-07T09:10:31.454Z,78.20
2018-02-07T09:13:05.237Z,76.00
2018-02-07T09:15:39.453Z,77.40
2018-02-07T09:18:13.279Z,77.30
2018-02-07T09:20:47.775Z,70.20
2018-02-07T09:23:22.299Z,73.10
2018-02-07T09:25:56.962Z,71.20
2018-02-07T09:28:31.453Z,76.00
2018-02-07T09:31:05.185Z,76.00
2018-02-07T09:33:39.815Z,71.00
2018-02-07T09:36:13.462Z,71.10
2018-02-07T09:38:48.613Z,69.80
2018-02-07T09:41:22.495Z,69.80
2018-02-07T09:43:57.003Z,73.20
2018-02-07T09:46:31.343Z,69.10
2018-02-07T09:49:05.950Z,71.50
2018-02-07T09:51:41.078Z,71.50
2018-02-07T09:54:15.545Z,66.90
2018-02-07T09:56:49.419Z,66.90
2018-02-07T09:59:24.043Z,67.60
2018-02-07T10:01:58.193Z,67.60
2018-02-07T10:04:31.906Z,65.70
2018-02-07T10:07:05.507Z,66.20
2018-02-07T10:09:39.497Z,69.40
2018-02-07T10:12:14.559Z,68.50
2018-02-07T10:14:48.340Z,68.50
2018-02-07T10:17:23.473Z,68.70
2018-02-07T10:19:56.943Z,68.70
2018-02-07T10:22:30.770Z,66.10
2018-02-07T10:25:04.491Z,64.80
2018-02-07T10:27:38.194Z,64.80
2018-02-07T10:30:11.851Z,62.90
2018-02-07T10:32:45.606Z,64.40
2018-02-07T10:35:19.199Z,63.50
2018-02-07T10:37:52.735Z,60.30
2018-02-07T10:40:26.400Z,62.70
2018-02-07T10:43:00.109Z,60.40
2018-02-07T10:45:33.827Z,59.90
2018-02-07T10:48:07.579Z,61.80
2018-02-07T10:50:41.155Z,61.70
2018-02-07T10:53:14.819Z,60.20
2018-02-07T10:55:48.364Z,62.20
2018-02-07T10:58:21.962Z,61.10
2018-02-07T11:00:56.448Z,60.80
2018-02-07T11:03:30.006Z,60.70
2018-02-07T11:06:04.376Z,59.80
2018-02-07T11:08:39.004Z,61.00
2018-02-07T11:11:12.610Z,61.00
2018-02-07T11:13:46.193Z,62.00
2018-02-07T11:16:20.471Z,61.20
2018-02-07T11:18:54.114Z,63.10
2018-02-07T11:21:28.755Z,63.40
2018-02-07T11:24:02.414Z,64.20
2018-02-07T11:26:37.006Z,68.60
2018-02-07T11:29:10.716Z,68.60
2018-02-07T11:31:44.542Z,69.70
2018-02-07T11:34:18.080Z,66.40
2018-02-07T11:36:51.799Z,63.30
2018-02-07T11:39:26.347Z,63.20
2018-02-07T11:42:00.059Z,63.00
2018-02-07T11:44:33.727Z,64.00
2018-02-07T11:47:07.492Z,64.50
2018-02-07T11:49:40.973Z,64.40
2018-02-07T11:52:14.554Z,63.30
2018-02-07T11:54:48.046Z,65.20
2018-02-07T11:57:23.076Z,68.00
2018-02-07T11:59:58.224Z,68.00
2018-02-07T12:02:31.918Z,68.40
2018-02-07T12:05:06.398Z,70.00
2018-02-07T12:07:40.042Z,69.80
2018-02-07T12:10:13.887Z,69.50
2018-02-07T12:12:47.580Z,68.70
2018-02-07T12:15:21.410Z,67.90
2018-02-07T12:17:55.156Z,66.80
2018-02-07T12:20:28.861Z,66.60
2018-02-07T12:23:02.415Z,68.10
2018-02-07T12:25:36.980Z,68.50
2018-02-07T12:28:11.487Z,69.20
2018-02-07T12:30:45.146Z,68.30
2018-02-07T12:33:18.702Z,70.60
2018-02-07T12:35:52.335Z,71.00
2018-02-07T12:38:26.712Z,71.60
2018-02-07T12:41:00.320Z,70.90
2018-02-07T12:43:34.827Z,71.50
2018-02-07T12:46:09.519Z,72.20
2018-02-07T12:48:44.387Z,70.70
2018-02-07T12:51:19.608Z,71.00
2018-02-07T12:53:54.458Z,71.60
2018-02-07T12:56:29.340Z,70.70
2018-02-07T12:59:03.284Z,70.70
2018-02-07T13:01:37.288Z,70.40
2018-02-07T13:04:12.019Z,70.20
2018-02-07T13:06:46.026Z,70.10
2018-02-07T13:09:19.946Z,69.40
2018-02-07T13:11:54.830Z,68.40
2018-02-07T13:14:29.057Z,68.40
2018-02-07T13:17:03.911Z,69.40
2018-02-07T13:19:38.652Z,68.80
2018-02-07T13:22:13.299Z,68.80
2018-02-07T13:24:48.535Z,68.60
2018-02-07T13:27:23.104Z,69.70
2018-02-07T13:29:57.727Z,70.00
2018-02-07T13:32:32.165Z,70.30
2018-02-07T13:35:06.705Z,69.80
2018-02-07T13:37:40.473Z,69.80
2018-02-07T13:40:15.116Z,68.90
2018-02-07T13:42:48.710Z,68.90
2018-02-07T13:45:24.356Z,69.60
2018-02-07T13:47:58.257Z,69.60
2018-02-07T13:50:32.892Z,67.60
2018-02-07T13:53:07.602Z,67.60
2018-02-07T13:55:42.039Z,67.90
2018-02-07T13:58:16.437Z,68.00
2018-02-07T14:00:53.133Z,67.80
2018-02-07T14:03:27.203Z,67.90
2018-02-07T14:06:01.214Z,68.10
2018-02-07T14:08:35.191Z,68.40
2018-02-07T14:11:08.945Z,67.80
2018-02-07T14:13:43.190Z,68.40
2018-02-07T14:16:17.182Z,69.40
2018-02-07T14:18:51.892Z,68.00
2018-02-07T14:21:26.591Z,67.70
2018-02-07T14:24:01.317Z,68.50
2018-02-07T14:26:37.318Z,68.20
2018-02-07T14:29:11.321Z,68.20
2018-02-07T14:31:46.240Z,68.00
2018-02-07T14:34:20.328Z,67.90
2018-02-07T14:36:55.040Z,67.70
2018-02-07T14:39:28.812Z,67.70
2018-02-07T14:42:02.872Z,67.40
2018-02-07T14:44:36.722Z,67.30
2018-02-07T14:47:12.712Z,68.70
2018-02-07T14:49:46.416Z,68.70
2018-02-07T14:52:20.317Z,69.10
2018-02-07T14:54:54.383Z,68.90
2018-02-07T14:57:28.707Z,69.10
2018-02-07T15:00:04.333Z,69.50
2018-02-07T15:02:38.132Z,69.50
2018-02-07T15:05:12.699Z,68.10
2018-02-07T15:07:46.486Z,68.10
2018-02-07T15:10:20.190Z,68.00
2018-02-07T15:12:53.828Z,68.20
2018-02-07T15:15:27.591Z,68.40
2018-02-07T15:18:01.631Z,68.10
2018-02-07T15:20:35.252Z,68.70
2018-02-07T15:23:09.643Z,69.00
2018-02-07T15:25:43.312Z,68.90
2018-02-07T15:28:18.317Z,70.10
2018-02-07T15:30:52.213Z,70.00
2018-02-07T15:33:27.030Z,70.00
2018-02-07T15:36:01.809Z,70.30
2018-02-07T15:38:35.722Z,70.10
2018-02-07T15:41:10.252Z,69.10
2018-02-07T15:43:44.143Z,69.00
2018-02-07T15:46:18.986Z,69.20
2018-02-07T15:48:52.779Z,69.10
2018-02-07T15:51:27.594Z,70.50
2018-02-07T15:54:01.514Z,70.50
2018-02-07T15:56:35.423Z,71.00
2018-02-07T15:59:09.585Z,70.50
2018-02-07T16:01:43.855Z,70.20
2018-02-07T16:04:18.383Z,70.70
2018-02-07T16:06:53.084Z,70.70
2018-02-07T16:09:28.049Z,70.10
2018-02-07T16:12:01.933Z,70.10
2018-02-07T16:14:36.006Z,70.20
2018-02-07T16:17:09.886Z,70.90
2018-02-07T16:19:43.858Z,71.20
2018-02-07T16:22:18.490Z,71.70
2018-02-07T16:24:52.441Z,71.80
2018-02-07T16:27:27.116Z,72.40
2018-02-07T16:30:01.485Z,72.20
2018-02-07T16:32:35.220Z,72.20
2018-02-07T16:35:08.805Z,72.40
2018-02-07T16:37:42.559Z,72.30
2018-02-07T16:40:16.378Z,72.60
2018-02-07T16:42:51.115Z,72.60
2018-02-07T16:45:25.742Z,72.40
2018-02-07T16:47:59.753Z,72.40
2018-02-07T16:50:34.294Z,71.70
2018-02-07T16:53:08.360Z,71.70
2018-02-07T16:55:42.237Z,71.70
2018-02-07T16:58:17.232Z,72.30
2018-02-07T17:00:51.707Z,72.40
2018-02-07T17:03:25.499Z,72.40
2018-02-07T17:05:59.319Z,72.50
2018-02-07T17:08:33.679Z,72.20
2018-02-07T17:11:07.256Z,72.20
2018-02-07T17:13:40.853Z,72.10
2018-02-07T17:16:14.423Z,72.40
2018-02-07T17:18:48.994Z,71.80
2018-02-07T17:21:22.679Z,71.80
2018-02-07T17:23:56.270Z,72.70
2018-02-07T17:26:30.015Z,71.10
2018-02-07T17:29:03.572Z,70.70
2018-02-07T17:31:37.203Z,70.40
2018-02-07T17:34:10.691Z,70.70
2018-02-07T17:36:45.023Z,70.60
2018-02-07T17:39:18.619Z,70.60
2018-02-07T17:41:52.114Z,70.30
2018-02-07T17:44:25.809Z,70.70
2018-02-07T17:47:00.523Z,70.80
2018-02-07T17:49:34.315Z,70.80
2018-02-07T17:52:07.856Z,70.10
2018-02-07T17:54:41.448Z,70.60
2018-02-07T17:57:15.171Z,70.20
2018-02-07T17:59:48.898Z,70.20
2018-02-07T18:02:23.378Z,69.60
2018-02-07T18:04:56.863Z,69.60
2018-02-07T18:07:30.367Z,69.50
2018-02-07T18:10:03.985Z,70.10
2018-02-07T18:12:38.359Z,70.10
2018-02-07T18:15:12.304Z,69.20
2018-02-07T18:17:46.000Z,69.50
2018-02-07T18:20:20.050Z,69.60
2018-02-07T18:22:54.095Z,69.70
2018-02-07T18:25:27.862Z,70.30
2018-02-07T18:28:02.515Z,70.00
2018-02-07T18:30:36.200Z,70.00
2018-02-07T18:33:09.730Z,68.90
2018-02-07T18:35:44.039Z,69.70
2018-02-07T18:38:17.924Z,69.60
2018-02-07T18:40:51.671Z,68.10
2018-02-07T18:43:25.362Z,67.30
2018-02-07T18:45:58.987Z,67.80
2018-02-07T18:48:33.667Z,66.80
2018-02-07T18:51:08.093Z,67.70
2018-02-07T18:53:43.465Z,66.90
2018-02-07T18:56:17.218Z,66.70
2018-02-07T18:58:50.903Z,67.20
2018-02-07T19:01:24.744Z,67.40
2018-02-07T19:03:59.328Z,67.40
2018-02-07T19:06:32.993Z,68.10
2018-02-07T19:09:07.083Z,67.30
2018-02-07T19:11:40.663Z,67.60
2018-02-07T19:14:15.088Z,67.60
2018-02-07T19:16:49.701Z,68.10
2018-02-07T19:19:24.471Z,68.70
2018-02-07T19:22:00.534Z,68.50
2018-02-07T19:24:35.350Z,68.90
2018-02-07T19:27:09.888Z,68.80
2018-02-07T19:29:44.367Z,68.70
2018-02-07T19:32:18.159Z,68.80
2018-02-07T19:34:52.506Z,68.40
2018-02-07T19:37:27.147Z,68.50
2018-02-07T19:40:00.989Z,68.40
2018-02-07T19:42:34.779Z,68.30
2018-02-07T19:45:09.122Z,68.30
2018-02-07T19:47:43.636Z,68.60
2018-02-07T20:03:07.055Z,68.80
2018-02-07T20:05:42.189Z,67.50
2018-02-07T20:08:15.952Z,67.40
2018-02-07T20:10:51.767Z,67.70
2018-02-07T20:13:26.112Z,67.70
2018-02-07T20:16:00.665Z,68.20
2018-02-07T20:18:35.323Z,68.10
2018-02-07T20:21:09.951Z,68.10
2018-02-07T20:23:43.969Z,68.10
2018-02-07T20:26:17.817Z,67.70
2018-02-07T20:28:51.835Z,68.50
2018-02-07T20:31:25.503Z,68.90
2018-02-07T20:33:59.207Z,69.00
2018-02-07T20:36:34.089Z,70.20
2018-02-07T20:39:08.647Z,69.70
2018-02-07T20:41:43.137Z,70.10
2018-02-07T20:44:17.674Z,69.80
2018-02-07T20:46:52.363Z,70.10
2018-02-07T20:49:27.162Z,69.30
2018-02-07T20:52:01.944Z,69.30
2018-02-07T20:54:35.727Z,69.30
2018-02-07T20:57:10.319Z,69.90
2018-02-07T20:59:43.910Z,70.00
2018-02-07T21:02:18.529Z,70.40
2018-02-07T21:04:53.268Z,70.20
2018-02-07T21:07:27.743Z,70.20
2018-02-07T21:10:01.797Z,70.30
2018-02-07T21:12:36.907Z,70.00
2018-02-07T21:15:11.813Z,70.20
2018-02-07T21:17:46.967Z,69.20
2018-02-07T21:20:20.482Z,69.20
2018-02-07T21:22:55.763Z,70.10
2018-02-07T21:25:29.614Z,70.10
2018-02-07T21:28:03.319Z,70.10
2018-02-07T21:30:38.045Z,70.20
2018-02-07T21:33:12.188Z,70.20
2018-02-07T21:35:50.071Z,70.20
2018-02-07T21:38:24.594Z,70.70
2018-02-07T21:40:58.306Z,70.60
2018-02-07T21:43:32.830Z,71.20
2018-02-07T21:46:07.448Z,70.30
2018-02-07T21:48:41.363Z,70.30
2018-02-07T21:51:16.094Z,70.60
2018-02-07T21:53:50.110Z,70.60
2018-02-07T21:56:24.616Z,70.20
2018-02-07T21:58:59.012Z,70.70
2018-02-07T22:01:33.707Z,71.50
2018-02-07T22:04:07.637Z,71.40
2018-02-07T22:06:42.180Z,73.40
2018-02-07T22:09:15.987Z,73.50
2018-02-07T22:11:49.882Z,73.90
2018-02-07T22:14:23.701Z,73.70
2018-02-07T22:16:57.511Z,72.90
2018-02-07T22:19:32.196Z,74.20
2018-02-07T22:22:06.008Z,74.10
2018-02-07T22:24:40.301Z,73.00
2018-02-07T22:27:14.741Z,73.30
2018-02-07T22:29:49.411Z,73.70
2018-02-07T22:32:23.866Z,74.30
2018-02-07T22:34:57.529Z,74.30
2018-02-07T22:37:32.140Z,75.10
2018-02-07T22:40:06.540Z,75.00
2018-02-07T22:42:40.470Z,75.00
2018-02-07T22:45:14.156Z,74.70
2018-02-07T22:47:47.760Z,75.60
2018-02-07T22:50:21.363Z,75.60
2018-02-07T22:52:55.779Z,75.10
2018-02-07T22:55:30.292Z,75.80
2018-02-07T22:58:04.951Z,76.20
2018-02-07T23:00:38.842Z,76.00
2018-02-07T23:03:13.399Z,75.00
2018-02-07T23:05:47.162Z,74.90
2018-02-07T23:08:20.989Z,75.40
2018-02-07T23:10:54.517Z,74.90
2018-02-07T23:13:29.054Z,75.60
2018-02-07T23:16:02.704Z,75.70
2018-02-07T23:18:37.329Z,75.50
2018-02-07T23:21:11.750Z,75.90
2018-02-07T23:23:46.450Z,75.50
2018-02-07T23:26:20.289Z,75.50
2018-02-07T23:28:54.940Z,74.70
2018-02-07T23:31:29.418Z,75.00
2018-02-07T23:34:03.003Z,75.00
2018-02-07T23:36:37.524Z,76.10
2018-02-07T23:39:12.274Z,76.20
2018-02-07T23:41:45.983Z,76.30
2018-02-07T23:44:19.938Z,75.60
2018-02-07T23:46:53.543Z,76.40
2018-02-07T23:49:27.091Z,75.90
2018-02-07T23:52:00.765Z,75.50
2018-02-07T23:54:35.320Z,74.60
2018-02-07T23:57:09.212Z,74.60
2018-02-07T23:59:43.712Z,75.80
